sensor_id;sensor_type;location;lat;lon;timestamp;pressure;altitude;pressure_sealevel;temperature;humidity
33845;BME280;20145;43.118;25.694;2023-04-15T00:00:06;98658.59;;;13.90;82.02
33845;BME280;20145;43.118;25.694;2023-04-15T00:02:32;98663.09;;;13.85;77.33
33845;BME280;20145;43.118;25.694;2023-04-15T00:04:57;98680.34;;;13.86;75.82
33845;BME280;20145;43.118;25.694;2023-04-15T00:07:23;98695.34;;;13.78;80.62
33845;BME280;20145;43.118;25.694;2023-04-15T00:09:48;98689.50;;;13.73;80.45
33845;BME280;20145;43.118;25.694;2023-04-15T00:12:14;98676.78;;;13.65;80.55
33845;BME280;20145;43.118;25.694;2023-04-15T00:14:39;98663.69;;;13.70;79.90
33845;BME280;20145;43.118;25.694;2023-04-15T00:17:05;98673.78;;;13.77;81.64
33845;BME280;20145;43.118;25.694;2023-04-15T00:19:31;98667.78;;;13.75;81.10
33845;BME280;20145;43.118;25.694;2023-04-15T00:21:57;98650.53;;;13.74;81.59
33845;BME280;20145;43.118;25.694;2023-04-15T00:24:23;98636.16;;;13.66;81.10
33845;BME280;20145;43.118;25.694;2023-04-15T00:26:48;98641.34;;;13.42;83.17
33845;BME280;20145;43.118;25.694;2023-04-15T00:29:14;98665.84;;;13.33;82.12
33845;BME280;20145;43.118;25.694;2023-04-15T00:31:40;98672.81;;;13.31;82.93
33845;BME280;20145;43.118;25.694;2023-04-15T00:34:09;98680.72;;;13.28;83.63
33845;BME280;20145;43.118;25.694;2023-04-15T00:36:34;98689.44;;;13.26;85.03
33845;BME280;20145;43.118;25.694;2023-04-15T00:39:00;98702.38;;;13.24;84.18
33845;BME280;20145;43.118;25.694;2023-04-15T00:41:27;98701.44;;;13.28;85.47
33845;BME280;20145;43.118;25.694;2023-04-15T00:43:53;98690.31;;;13.25;84.70
33845;BME280;20145;43.118;25.694;2023-04-15T00:46:19;98675.25;;;13.36;83.96
33845;BME280;20145;43.118;25.694;2023-04-15T00:48:46;98651.59;;;13.20;84.26
33845;BME280;20145;43.118;25.694;2023-04-15T00:51:12;98653.09;;;13.27;84.22
33845;BME280;20145;43.118;25.694;2023-04-15T00:53:38;98653.25;;;13.23;84.40
33845;BME280;20145;43.118;25.694;2023-04-15T00:56:05;98665.53;;;13.16;83.21
33845;BME280;20145;43.118;25.694;2023-04-15T00:58:30;98691.63;;;13.11;83.42
33845;BME280;20145;43.118;25.694;2023-04-15T01:00:56;98688.44;;;13.03;84.85
33845;BME280;20145;43.118;25.694;2023-04-15T01:03:23;98685.50;;;13.14;85.20
33845;BME280;20145;43.118;25.694;2023-04-15T01:05:49;98673.16;;;13.21;84.58
33845;BME280;20145;43.118;25.694;2023-04-15T01:08:14;98674.84;;;13.22;83.99
33845;BME280;20145;43.118;25.694;2023-04-15T01:10:40;98687.75;;;13.23;83.92
33845;BME280;20145;43.118;25.694;2023-04-15T01:13:06;98695.66;;;13.18;83.15
33845;BME280;20145;43.118;25.694;2023-04-15T01:15:32;98714.94;;;13.11;83.84
33845;BME280;20145;43.118;25.694;2023-04-15T01:17:58;98701.53;;;13.24;84.03
33845;BME280;20145;43.118;25.694;2023-04-15T01:20:23;98680.53;;;13.33;84.17
33845;BME280;20145;43.118;25.694;2023-04-15T01:22:49;98659.72;;;13.36;84.04
33845;BME280;20145;43.118;25.694;2023-04-15T01:27:44;98646.84;;;13.33;83.63
33845;BME280;20145;43.118;25.694;2023-04-15T01:30:10;98639.28;;;13.27;82.24
33845;BME280;20145;43.118;25.694;2023-04-15T01:32:36;98646.28;;;13.25;81.89
33845;BME280;20145;43.118;25.694;2023-04-15T01:35:02;98644.56;;;13.24;84.18
33845;BME280;20145;43.118;25.694;2023-04-15T01:37:28;98646.34;;;13.22;79.64
33845;BME280;20145;43.118;25.694;2023-04-15T01:39:54;98658.28;;;13.27;79.39
33845;BME280;20145;43.118;25.694;2023-04-15T01:42:21;98660.22;;;13.21;80.18
33845;BME280;20145;43.118;25.694;2023-04-15T01:44:47;98658.28;;;13.27;81.42
33845;BME280;20145;43.118;25.694;2023-04-15T01:47:12;98641.56;;;13.11;81.57
33845;BME280;20145;43.118;25.694;2023-04-15T01:49:38;98662.16;;;12.89;81.82
33845;BME280;20145;43.118;25.694;2023-04-15T01:52:04;98665.63;;;12.88;80.67
33845;BME280;20145;43.118;25.694;2023-04-15T01:54:29;98663.59;;;12.98;80.03
33845;BME280;20145;43.118;25.694;2023-04-15T01:56:55;98659.84;;;13.06;79.62
33845;BME280;20145;43.118;25.694;2023-04-15T01:59:21;98641.00;;;13.03;83.40
33845;BME280;20145;43.118;25.694;2023-04-15T02:01:47;98645.63;;;13.18;83.57
33845;BME280;20145;43.118;25.694;2023-04-15T02:04:12;98623.94;;;13.21;84.46
33845;BME280;20145;43.118;25.694;2023-04-15T02:06:43;98605.97;;;13.16;83.00
33845;BME280;20145;43.118;25.694;2023-04-15T02:09:09;98605.34;;;13.09;81.87
33845;BME280;20145;43.118;25.694;2023-04-15T02:11:35;98638.09;;;13.10;81.51
33845;BME280;20145;43.118;25.694;2023-04-15T02:14:02;98665.94;;;13.05;82.63
33845;BME280;20145;43.118;25.694;2023-04-15T02:16:31;98689.13;;;13.08;83.98
33845;BME280;20145;43.118;25.694;2023-04-15T02:18:58;98678.28;;;12.97;84.44
33845;BME280;20145;43.118;25.694;2023-04-15T02:21:25;98700.63;;;13.00;84.60
33845;BME280;20145;43.118;25.694;2023-04-15T02:23:51;98702.66;;;12.91;83.20
33845;BME280;20145;43.118;25.694;2023-04-15T02:26:19;98683.50;;;12.95;83.32
33845;BME280;20145;43.118;25.694;2023-04-15T02:28:45;98683.25;;;13.03;83.99
33845;BME280;20145;43.118;25.694;2023-04-15T02:31:11;98677.63;;;12.90;84.40
33845;BME280;20145;43.118;25.694;2023-04-15T02:33:37;98675.25;;;12.84;85.69
33845;BME280;20145;43.118;25.694;2023-04-15T02:36:03;98670.31;;;12.77;85.75
33845;BME280;20145;43.118;25.694;2023-04-15T02:38:28;98667.97;;;12.69;86.74
33845;BME280;20145;43.118;25.694;2023-04-15T02:40:55;98650.88;;;12.65;86.56
33845;BME280;20145;43.118;25.694;2023-04-15T02:43:21;98659.56;;;12.64;86.70
33845;BME280;20145;43.118;25.694;2023-04-15T02:45:47;98683.72;;;12.63;84.63
33845;BME280;20145;43.118;25.694;2023-04-15T02:48:12;98700.53;;;12.49;84.89
33845;BME280;20145;43.118;25.694;2023-04-15T02:50:38;98719.56;;;12.47;84.85
33845;BME280;20145;43.118;25.694;2023-04-15T02:53:05;98717.09;;;12.44;86.05
33845;BME280;20145;43.118;25.694;2023-04-15T02:55:31;98712.91;;;12.40;85.59
33845;BME280;20145;43.118;25.694;2023-04-15T02:57:56;98732.28;;;12.55;86.55
33845;BME280;20145;43.118;25.694;2023-04-15T03:00:26;98732.84;;;12.64;86.29
33845;BME280;20145;43.118;25.694;2023-04-15T03:02:57;98732.75;;;12.67;87.24
33845;BME280;20145;43.118;25.694;2023-04-15T03:05:23;98729.25;;;12.68;86.22
33845;BME280;20145;43.118;25.694;2023-04-15T03:07:50;98730.97;;;12.69;85.56
33845;BME280;20145;43.118;25.694;2023-04-15T03:10:16;98731.13;;;12.63;87.63
33845;BME280;20145;43.118;25.694;2023-04-15T03:12:42;98718.19;;;12.63;87.35
33845;BME280;20145;43.118;25.694;2023-04-15T03:15:08;98722.41;;;12.67;86.94
33845;BME280;20145;43.118;25.694;2023-04-15T03:17:34;98722.41;;;12.67;86.29
33845;BME280;20145;43.118;25.694;2023-04-15T03:20:04;98717.25;;;12.66;87.35
33845;BME280;20145;43.118;25.694;2023-04-15T03:22:30;98713.53;;;12.48;87.70
33845;BME280;20145;43.118;25.694;2023-04-15T03:24:56;98710.34;;;12.38;88.34
33845;BME280;20145;43.118;25.694;2023-04-15T03:27:22;98717.41;;;12.33;88.17
33845;BME280;20145;43.118;25.694;2023-04-15T03:29:48;98699.59;;;12.24;89.07
33845;BME280;20145;43.118;25.694;2023-04-15T03:32:13;98708.34;;;12.20;88.53
33845;BME280;20145;43.118;25.694;2023-04-15T03:34:42;98694.78;;;12.12;88.34
33845;BME280;20145;43.118;25.694;2023-04-15T03:37:08;98695.41;;;12.20;89.16
33845;BME280;20145;43.118;25.694;2023-04-15T03:39:34;98691.72;;;12.27;88.27
33845;BME280;20145;43.118;25.694;2023-04-15T03:42:00;98684.13;;;12.22;89.10
33845;BME280;20145;43.118;25.694;2023-04-15T03:44:26;98690.84;;;12.28;87.87
33845;BME280;20145;43.118;25.694;2023-04-15T03:46:52;98712.72;;;12.18;87.37
33845;BME280;20145;43.118;25.694;2023-04-15T03:49:18;98727.22;;;12.22;86.04
33845;BME280;20145;43.118;25.694;2023-04-15T03:51:44;98729.66;;;12.28;87.69
33845;BME280;20145;43.118;25.694;2023-04-15T03:54:10;98724.84;;;12.44;87.53
33845;BME280;20145;43.118;25.694;2023-04-15T03:56:37;98733.09;;;12.57;88.31
33845;BME280;20145;43.118;25.694;2023-04-15T03:59:02;98753.69;;;12.60;86.31
33845;BME280;20145;43.118;25.694;2023-04-15T04:01:28;98742.41;;;12.62;86.74
33845;BME280;20145;43.118;25.694;2023-04-15T04:03:54;98752.44;;;12.71;87.94
33845;BME280;20145;43.118;25.694;2023-04-15T04:06:19;98758.22;;;12.80;86.87
33845;BME280;20145;43.118;25.694;2023-04-15T04:08:45;98771.78;;;12.88;86.65
33845;BME280;20145;43.118;25.694;2023-04-15T04:11:10;98767.22;;;12.96;86.33
33845;BME280;20145;43.118;25.694;2023-04-15T04:13:36;98764.34;;;13.05;85.94
33845;BME280;20145;43.118;25.694;2023-04-15T04:16:02;98777.44;;;13.01;85.98
33845;BME280;20145;43.118;25.694;2023-04-15T04:18:30;98788.72;;;12.98;85.13
33845;BME280;20145;43.118;25.694;2023-04-15T04:20:55;98787.78;;;13.01;84.88
33845;BME280;20145;43.118;25.694;2023-04-15T04:23:21;98791.84;;;13.08;84.99
33845;BME280;20145;43.118;25.694;2023-04-15T04:25:47;98790.06;;;13.10;84.60
33845;BME280;20145;43.118;25.694;2023-04-15T04:28:12;98792.41;;;13.17;85.78
33845;BME280;20145;43.118;25.694;2023-04-15T04:30:38;98793.16;;;13.21;85.46
33845;BME280;20145;43.118;25.694;2023-04-15T04:33:06;98787.09;;;13.22;85.02
33845;BME280;20145;43.118;25.694;2023-04-15T04:35:31;98786.69;;;13.36;85.50
33845;BME280;20145;43.118;25.694;2023-04-15T04:37:59;98766.03;;;13.33;84.95
33845;BME280;20145;43.118;25.694;2023-04-15T04:40:25;98790.31;;;13.30;84.73
33845;BME280;20145;43.118;25.694;2023-04-15T04:42:52;98809.59;;;12.93;83.36
33845;BME280;20145;43.118;25.694;2023-04-15T04:45:18;98817.34;;;12.93;82.91
33845;BME280;20145;43.118;25.694;2023-04-15T04:47:43;98832.66;;;13.29;83.87
33845;BME280;20145;43.118;25.694;2023-04-15T04:50:09;98838.78;;;13.53;82.65
33845;BME280;20145;43.118;25.694;2023-04-15T04:52:36;98843.34;;;13.72;82.32
33845;BME280;20145;43.118;25.694;2023-04-15T04:55:02;98852.25;;;13.90;82.29
33845;BME280;20145;43.118;25.694;2023-04-15T04:57:27;98850.72;;;14.07;83.55
33845;BME280;20145;43.118;25.694;2023-04-15T04:59:53;98836.50;;;14.19;84.16
33845;BME280;20145;43.118;25.694;2023-04-15T05:02:18;98844.66;;;14.32;83.17
33845;BME280;20145;43.118;25.694;2023-04-15T05:04:44;98836.69;;;14.38;82.00
33845;BME280;20145;43.118;25.694;2023-04-15T05:07:10;98862.28;;;14.47;78.74
33845;BME280;20145;43.118;25.694;2023-04-15T05:09:35;98866.53;;;14.50;78.01
33845;BME280;20145;43.118;25.694;2023-04-15T05:12:02;98874.59;;;14.42;76.71
33845;BME280;20145;43.118;25.694;2023-04-15T05:14:28;98883.44;;;14.37;76.33
33845;BME280;20145;43.118;25.694;2023-04-15T05:16:53;98874.97;;;14.57;75.57
33845;BME280;20145;43.118;25.694;2023-04-15T05:19:19;98867.72;;;14.88;77.06
33845;BME280;20145;43.118;25.694;2023-04-15T05:21:45;98871.97;;;14.91;75.17
33845;BME280;20145;43.118;25.694;2023-04-15T05:24:10;98856.66;;;14.83;74.31
33845;BME280;20145;43.118;25.694;2023-04-15T05:26:36;98854.06;;;15.05;75.38
33845;BME280;20145;43.118;25.694;2023-04-15T05:29:01;98852.25;;;15.07;72.42
33845;BME280;20145;43.118;25.694;2023-04-15T05:31:27;98866.56;;;15.17;69.00
33845;BME280;20145;43.118;25.694;2023-04-15T05:33:53;98852.91;;;15.12;70.18
33845;BME280;20145;43.118;25.694;2023-04-15T05:36:18;98849.16;;;15.20;71.05
33845;BME280;20145;43.118;25.694;2023-04-15T05:38:44;98857.41;;;15.51;69.48
33845;BME280;20145;43.118;25.694;2023-04-15T05:41:09;98864.97;;;15.57;68.60
33845;BME280;20145;43.118;25.694;2023-04-15T05:43:35;98867.94;;;15.70;67.67
33845;BME280;20145;43.118;25.694;2023-04-15T05:46:00;98869.91;;;15.86;68.39
33845;BME280;20145;43.118;25.694;2023-04-15T05:48:26;98880.16;;;16.09;67.75
33845;BME280;20145;43.118;25.694;2023-04-15T05:50:51;98872.34;;;16.30;68.85
33845;BME280;20145;43.118;25.694;2023-04-15T05:53:17;98870.59;;;16.30;66.19
33845;BME280;20145;43.118;25.694;2023-04-15T05:55:43;98865.88;;;16.38;66.13
33845;BME280;20145;43.118;25.694;2023-04-15T05:58:08;98878.91;;;16.18;64.80
33845;BME280;20145;43.118;25.694;2023-04-15T06:00:34;98870.06;;;16.01;65.73
33845;BME280;20145;43.118;25.694;2023-04-15T06:03:00;98879.56;;;16.23;63.97
33845;BME280;20145;43.118;25.694;2023-04-15T06:05:26;98885.19;;;16.14;63.29
33845;BME280;20145;43.118;25.694;2023-04-15T06:07:52;98873.06;;;16.13;64.14
33845;BME280;20145;43.118;25.694;2023-04-15T06:10:18;98889.13;;;16.22;65.79
33845;BME280;20145;43.118;25.694;2023-04-15T06:12:43;98882.34;;;16.18;64.66
33845;BME280;20145;43.118;25.694;2023-04-15T06:15:09;98885.19;;;16.14;64.73
33845;BME280;20145;43.118;25.694;2023-04-15T06:17:35;98885.50;;;16.06;63.90
33845;BME280;20145;43.118;25.694;2023-04-15T06:20:02;98881.59;;;15.96;65.52
33845;BME280;20145;43.118;25.694;2023-04-15T06:22:27;98886.16;;;15.91;64.72
33845;BME280;20145;43.118;25.694;2023-04-15T06:24:53;98898.66;;;16.03;63.81
33845;BME280;20145;43.118;25.694;2023-04-15T06:27:19;98904.81;;;16.00;61.60
33845;BME280;20145;43.118;25.694;2023-04-15T06:29:45;98905.28;;;16.10;62.48
33845;BME280;20145;43.118;25.694;2023-04-15T06:32:10;98905.22;;;16.12;61.69
33845;BME280;20145;43.118;25.694;2023-04-15T06:34:37;98910.28;;;16.15;60.73
33845;BME280;20145;43.118;25.694;2023-04-15T06:37:02;98917.31;;;16.33;61.52
33845;BME280;20145;43.118;25.694;2023-04-15T06:39:28;98916.91;;;16.42;60.69
33845;BME280;20145;43.118;25.694;2023-04-15T06:41:53;98926.97;;;16.50;55.30
33845;BME280;20145;43.118;25.694;2023-04-15T06:44:19;98926.22;;;16.27;52.69
33845;BME280;20145;43.118;25.694;2023-04-15T06:46:44;98934.78;;;16.50;52.93
33845;BME280;20145;43.118;25.694;2023-04-15T06:49:10;98943.25;;;16.55;49.47
33845;BME280;20145;43.118;25.694;2023-04-15T06:51:36;98942.13;;;16.61;50.38
33845;BME280;20145;43.118;25.694;2023-04-15T06:54:03;98936.84;;;16.62;53.83
33845;BME280;20145;43.118;25.694;2023-04-15T06:56:31;98938.81;;;16.78;54.36
33845;BME280;20145;43.118;25.694;2023-04-15T06:58:56;98938.34;;;16.88;55.43
33845;BME280;20145;43.118;25.694;2023-04-15T07:01:22;98947.91;;;16.88;56.16
33845;BME280;20145;43.118;25.694;2023-04-15T07:03:48;98940.09;;;16.88;55.50
33845;BME280;20145;43.118;25.694;2023-04-15T07:06:13;98948.91;;;16.85;54.21
33845;BME280;20145;43.118;25.694;2023-04-15T07:08:39;98952.34;;;16.86;52.56
33845;BME280;20145;43.118;25.694;2023-04-15T07:11:04;98963.88;;;16.80;50.77
33845;BME280;20145;43.118;25.694;2023-04-15T07:13:31;98946.94;;;16.70;50.52
33845;BME280;20145;43.118;25.694;2023-04-15T07:15:57;98965.56;;;16.81;49.07
33845;BME280;20145;43.118;25.694;2023-04-15T07:18:22;98956.63;;;16.87;49.54
33845;BME280;20145;43.118;25.694;2023-04-15T07:20:48;98959.69;;;16.97;49.18
33845;BME280;20145;43.118;25.694;2023-04-15T07:23:13;98958.69;;;16.99;48.08
33845;BME280;20145;43.118;25.694;2023-04-15T07:25:39;98955.66;;;17.08;45.78
33845;BME280;20145;43.118;25.694;2023-04-15T07:28:05;98958.63;;;17.20;47.38
33845;BME280;20145;43.118;25.694;2023-04-15T07:30:31;98963.78;;;17.21;45.28
33845;BME280;20145;43.118;25.694;2023-04-15T07:32:57;98962.78;;;17.24;46.18
33845;BME280;20145;43.118;25.694;2023-04-15T07:35:23;98972.00;;;17.31;45.56
33845;BME280;20145;43.118;25.694;2023-04-15T07:37:50;98980.94;;;17.25;47.21
33845;BME280;20145;43.118;25.694;2023-04-15T07:40:16;98981.72;;;17.27;46.76
33845;BME280;20145;43.118;25.694;2023-04-15T07:42:42;98985.88;;;17.31;45.99
33845;BME280;20145;43.118;25.694;2023-04-15T07:45:08;98990.25;;;17.31;45.97
33845;BME280;20145;43.118;25.694;2023-04-15T07:47:34;98984.88;;;17.34;44.90
33845;BME280;20145;43.118;25.694;2023-04-15T07:49:59;98988.47;;;17.31;44.53
33845;BME280;20145;43.118;25.694;2023-04-15T07:52:26;98988.06;;;17.41;44.80
33845;BME280;20145;43.118;25.694;2023-04-15T07:54:52;98992.66;;;17.35;45.41
33845;BME280;20145;43.118;25.694;2023-04-15T07:57:18;98981.72;;;17.27;42.92
33845;BME280;20145;43.118;25.694;2023-04-15T07:59:43;98991.38;;;17.44;43.00
33845;BME280;20145;43.118;25.694;2023-04-15T08:02:10;98995.09;;;17.57;43.66
33845;BME280;20145;43.118;25.694;2023-04-15T08:04:36;99004.59;;;17.58;44.12
33845;BME280;20145;43.118;25.694;2023-04-15T08:07:02;98997.13;;;17.51;44.71
33845;BME280;20145;43.118;25.694;2023-04-15T08:09:29;99000.88;;;17.64;45.02
33845;BME280;20145;43.118;25.694;2023-04-15T08:11:54;99011.28;;;17.64;43.92
33845;BME280;20145;43.118;25.694;2023-04-15T08:14:21;99002.00;;;17.58;44.62
33845;BME280;20145;43.118;25.694;2023-04-15T08:16:47;99002.94;;;17.57;45.22
33845;BME280;20145;43.118;25.694;2023-04-15T08:19:12;99011.50;;;17.59;45.11
33845;BME280;20145;43.118;25.694;2023-04-15T08:21:38;99007.22;;;17.58;46.34
33845;BME280;20145;43.118;25.694;2023-04-15T08:24:05;99011.09;;;17.69;46.32
33845;BME280;20145;43.118;25.694;2023-04-15T08:26:31;99003.56;;;17.63;45.34
33845;BME280;20145;43.118;25.694;2023-04-15T08:28:56;99007.16;;;17.60;45.17
33845;BME280;20145;43.118;25.694;2023-04-15T08:31:22;99022.72;;;17.61;44.82
33845;BME280;20145;43.118;25.694;2023-04-15T08:33:48;99017.28;;;17.66;42.96
33845;BME280;20145;43.118;25.694;2023-04-15T08:36:16;99019.66;;;17.71;43.50
33845;BME280;20145;43.118;25.694;2023-04-15T08:38:43;99024.19;;;17.67;45.50
33845;BME280;20145;43.118;25.694;2023-04-15T08:41:20;99014.34;;;17.55;46.78
33845;BME280;20145;43.118;25.694;2023-04-15T08:43:56;99013.75;;;17.67;46.04
33845;BME280;20145;43.118;25.694;2023-04-15T08:46:22;99014.44;;;17.71;45.04
33845;BME280;20145;43.118;25.694;2023-04-15T08:48:48;99009.50;;;17.47;46.57
33845;BME280;20145;43.118;25.694;2023-04-15T08:51:17;99002.06;;;17.57;46.43
33845;BME280;20145;43.118;25.694;2023-04-15T08:53:44;99008.84;;;17.61;47.03
33845;BME280;20145;43.118;25.694;2023-04-15T08:56:13;99007.41;;;17.73;47.42
33845;BME280;20145;43.118;25.694;2023-04-15T08:58:40;99016.66;;;17.80;47.30
33845;BME280;20145;43.118;25.694;2023-04-15T09:01:06;99014.75;;;17.83;47.20
33845;BME280;20145;43.118;25.694;2023-04-15T09:03:32;99011.94;;;17.88;46.24
33845;BME280;20145;43.118;25.694;2023-04-15T09:05:59;99008.38;;;17.89;46.03
33845;BME280;20145;43.118;25.694;2023-04-15T09:08:24;99014.28;;;17.93;45.03
33845;BME280;20145;43.118;25.694;2023-04-15T09:10:50;99009.56;;;18.01;44.27
33845;BME280;20145;43.118;25.694;2023-04-15T09:13:17;99005.41;;;18.14;44.30
33845;BME280;20145;43.118;25.694;2023-04-15T09:15:43;98997.00;;;18.26;44.33
33845;BME280;20145;43.118;25.694;2023-04-15T09:18:11;98993.97;;;18.34;41.37
33845;BME280;20145;43.118;25.694;2023-04-15T09:20:40;99004.81;;;18.44;40.14
33845;BME280;20145;43.118;25.694;2023-04-15T09:23:14;99002.59;;;18.36;42.26
33845;BME280;20145;43.118;25.694;2023-04-15T09:25:41;99003.69;;;18.32;42.05
33845;BME280;20145;43.118;25.694;2023-04-15T09:28:07;99008.50;;;18.22;42.31
33845;BME280;20145;43.118;25.694;2023-04-15T09:30:33;98979.47;;;18.11;42.29
33845;BME280;20145;43.118;25.694;2023-04-15T09:33:00;99013.34;;;18.30;43.14
33845;BME280;20145;43.118;25.694;2023-04-15T09:35:27;98999.81;;;18.39;42.29
33845;BME280;20145;43.118;25.694;2023-04-15T09:38:01;99001.66;;;18.37;43.04
33845;BME280;20145;43.118;25.694;2023-04-15T09:40:35;98992.38;;;18.49;43.47
33845;BME280;20145;43.118;25.694;2023-04-15T09:43:05;98981.66;;;18.54;43.95
33845;BME280;20145;43.118;25.694;2023-04-15T09:45:31;98988.19;;;18.62;43.64
33845;BME280;20145;43.118;25.694;2023-04-15T09:48:24;98988.72;;;18.69;43.13
33845;BME280;20145;43.118;25.694;2023-04-15T09:50:58;98985.25;;;18.68;42.16
33845;BME280;20145;43.118;25.694;2023-04-15T09:53:25;98980.09;;;18.67;43.16
33845;BME280;20145;43.118;25.694;2023-04-15T09:55:52;98992.84;;;18.73;43.24
33845;BME280;20145;43.118;25.694;2023-04-15T09:58:20;98988.69;;;18.86;43.67
33845;BME280;20145;43.118;25.694;2023-04-15T10:00:47;98990.22;;;18.73;43.52
33845;BME280;20145;43.118;25.694;2023-04-15T10:03:21;98981.53;;;18.74;44.04
33845;BME280;20145;43.118;25.694;2023-04-15T10:05:50;98981.97;;;18.82;44.64
33845;BME280;20145;43.118;25.694;2023-04-15T10:08:18;98979.00;;;18.88;45.14
33845;BME280;20145;43.118;25.694;2023-04-15T10:10:45;98971.84;;;18.92;44.03
33845;BME280;20145;43.118;25.694;2023-04-15T10:13:22;98956.94;;;18.94;43.56
33845;BME280;20145;43.118;25.694;2023-04-15T10:16:00;98951.03;;;18.90;44.35
33845;BME280;20145;43.118;25.694;2023-04-15T10:18:26;98964.84;;;18.92;42.79
33845;BME280;20145;43.118;25.694;2023-04-15T10:20:53;98961.94;;;18.81;44.05
33845;BME280;20145;43.118;25.694;2023-04-15T10:23:19;98972.50;;;18.80;42.73
33845;BME280;20145;43.118;25.694;2023-04-15T10:25:50;98974.34;;;18.78;43.66
33845;BME280;20145;43.118;25.694;2023-04-15T10:28:16;98972.81;;;19.07;44.48
33845;BME280;20145;43.118;25.694;2023-04-15T10:30:42;98976.53;;;19.19;42.33
33845;BME280;20145;43.118;25.694;2023-04-15T10:33:09;98959.22;;;19.16;43.59
33845;BME280;20145;43.118;25.694;2023-04-15T10:35:38;98977.19;;;19.22;43.53
33845;BME280;20145;43.118;25.694;2023-04-15T10:38:33;98967.50;;;19.24;43.07
33845;BME280;20145;43.118;25.694;2023-04-15T10:44:00;98973.06;;;19.18;42.59
33845;BME280;20145;43.118;25.694;2023-04-15T10:46:44;98977.19;;;19.22;42.03
33845;BME280;20145;43.118;25.694;2023-04-15T10:49:14;98967.34;;;19.27;41.96
33845;BME280;20145;43.118;25.694;2023-04-15T10:54:12;98946.66;;;19.38;42.35
33845;BME280;20145;43.118;25.694;2023-04-15T10:56:40;98950.69;;;19.44;42.06
33845;BME280;20145;43.118;25.694;2023-04-15T10:59:06;98960.31;;;19.44;40.89
33845;BME280;20145;43.118;25.694;2023-04-15T11:01:52;98957.28;;;19.51;41.08
33845;BME280;20145;43.118;25.694;2023-04-15T11:04:51;98954.91;;;19.63;40.81
33845;BME280;20145;43.118;25.694;2023-04-15T11:10:00;98956.09;;;20.03;40.30
33845;BME280;20145;43.118;25.694;2023-04-15T11:12:34;98958.03;;;20.30;36.94
33845;BME280;20145;43.118;25.694;2023-04-15T11:17:51;98957.00;;;20.62;36.16
33845;BME280;20145;43.118;25.694;2023-04-15T11:20:17;98960.25;;;20.94;35.14
33845;BME280;20145;43.118;25.694;2023-04-15T11:22:50;98962.94;;;21.22;34.64
33845;BME280;20145;43.118;25.694;2023-04-15T11:27:49;98957.63;;;20.94;34.80
33845;BME280;20145;43.118;25.694;2023-04-15T11:30:23;98951.47;;;20.67;34.71
33845;BME280;20145;43.118;25.694;2023-04-15T11:32:49;98951.88;;;20.45;35.67
33845;BME280;20145;43.118;25.694;2023-04-15T11:35:16;98947.81;;;20.69;34.52
33845;BME280;20145;43.118;25.694;2023-04-15T11:37:46;98943.69;;;20.65;36.73
33845;BME280;20145;43.118;25.694;2023-04-15T11:40:12;98941.31;;;20.46;35.38
33845;BME280;20145;43.118;25.694;2023-04-15T11:42:40;98942.16;;;20.47;36.91
33845;BME280;20145;43.118;25.694;2023-04-15T11:45:07;98944.34;;;20.69;37.00
33845;BME280;20145;43.118;25.694;2023-04-15T11:47:34;98931.34;;;20.82;36.35
33845;BME280;20145;43.118;25.694;2023-04-15T11:50:18;98924.28;;;20.97;36.66
33845;BME280;20145;43.118;25.694;2023-04-15T11:52:56;98923.91;;;21.03;34.59
33845;BME280;20145;43.118;25.694;2023-04-15T11:55:24;98920.06;;;20.94;36.05
33845;BME280;20145;43.118;25.694;2023-04-15T11:58:14;98919.47;;;21.17;36.62
33845;BME280;20145;43.118;25.694;2023-04-15T12:00:48;98920.19;;;21.34;35.81
33845;BME280;20145;43.118;25.694;2023-04-15T12:06:20;98911.88;;;21.54;35.48
33845;BME280;20145;43.118;25.694;2023-04-15T12:11:16;98905.06;;;21.52;35.30
33845;BME280;20145;43.118;25.694;2023-04-15T12:13:46;98912.25;;;21.75;34.47
33845;BME280;20145;43.118;25.694;2023-04-15T12:16:12;98905.66;;;21.82;35.16
33845;BME280;20145;43.118;25.694;2023-04-15T12:18:40;98898.34;;;22.00;34.83
33845;BME280;20145;43.118;25.694;2023-04-15T12:21:10;98900.84;;;22.02;34.26
33845;BME280;20145;43.118;25.694;2023-04-15T12:23:37;98901.56;;;21.91;34.30
33845;BME280;20145;43.118;25.694;2023-04-15T12:26:05;98908.06;;;21.73;34.49
33845;BME280;20145;43.118;25.694;2023-04-15T12:28:33;98900.22;;;21.58;34.78
33845;BME280;20145;43.118;25.694;2023-04-15T12:31:06;98896.81;;;21.83;35.21
33845;BME280;20145;43.118;25.694;2023-04-15T12:33:33;98902.53;;;21.90;34.81
33845;BME280;20145;43.118;25.694;2023-04-15T12:35:59;98897.22;;;21.77;35.84
33845;BME280;20145;43.118;25.694;2023-04-15T12:38:25;98899.53;;;21.69;35.34
33845;BME280;20145;43.118;25.694;2023-04-15T12:40:50;98897.03;;;21.68;35.75
33845;BME280;20145;43.118;25.694;2023-04-15T12:43:16;98887.09;;;21.46;36.89
33845;BME280;20145;43.118;25.694;2023-04-15T12:45:41;98889.28;;;21.52;36.62
33845;BME280;20145;43.118;25.694;2023-04-15T12:48:07;98887.59;;;21.24;36.46
33845;BME280;20145;43.118;25.694;2023-04-15T12:50:34;98887.81;;;21.33;36.35
33845;BME280;20145;43.118;25.694;2023-04-15T12:53:00;98887.19;;;21.30;36.68
33845;BME280;20145;43.118;25.694;2023-04-15T12:55:25;98880.81;;;21.34;36.53
33845;BME280;20145;43.118;25.694;2023-04-15T12:57:51;98874.25;;;21.41;36.49
33845;BME280;20145;43.118;25.694;2023-04-15T13:00:17;98879.75;;;21.36;37.34
33845;BME280;20145;43.118;25.694;2023-04-15T13:02:43;98874.06;;;21.30;35.86
33845;BME280;20145;43.118;25.694;2023-04-15T13:05:09;98877.78;;;21.13;35.55
33845;BME280;20145;43.118;25.694;2023-04-15T13:07:34;98864.22;;;21.06;37.16
33845;BME280;20145;43.118;25.694;2023-04-15T13:10:00;98870.44;;;20.91;37.46